Terminal Aerodrome Forecast
Issued by NWS Wilmington, OH

Current Version | Previous Version | Graphics & Text | Print | Product List | Glossary On
Versions: 1 2 3 4 5 6 7 8 9 10 11 12 13 14 15 16 17
691
FTUS41 KILN 060524
TAFDAY
TAF
KDAY 060524Z 0606/0706 VRB02KT P6SM SCT050 SCT250
     FM061400 23009KT P6SM SCT060
     FM062200 19005KT P6SM FEW050=

USA.gov is the U.S. government's official web portal to all federal, state and local government web resources and services.